Meteo Giornale » Osservazioni meteo Ungheria » Debrecen
ore: 19:15 - Osservazioni Meteo Debrecen
Lat. 47° 29' N Lon. 21° 36' E Alt. 108 metri s.l.m.
30 °C
Sereno
Temp. 24 Ore
15 °C
34 °C
Est/Sud-Est
7.4 Km/h
Dew point 12 °C
Umidità 33 %
Visibilità 10 Km
Il sole sorge alle ore 05:51
Il sole tramonta alle ore 19:16
| Data e Ora | Cielo e Fenomeni | T °C | DP °C | Um. % | Pres. hPa | Vis. km | Vento km/h | |
|---|---|---|---|---|---|---|---|---|
| Oggi h: 19:15 | Sereno | 30 | 12 | 33 | 1012 | 10 | E/SE 7.4 | |
| Oggi h: 18:45 | Sereno | 32 | 11 | 27 | 1012 | 10 | E/SE 7.4 | |
| Oggi h: 18:15 | Sereno | 33 | 11 | 26 | 1012 | 10 | SE 7.4 | |
| Oggi h: 17:45 | Sereno | 33 | 11 | 26 | 1013 | 10 | S 9.3 | |
| Oggi h: 17:15 | Sereno | 34 | 10 | 23 | 1013 | 10 | N 5.5 | |
| Oggi h: 16:45 | Sereno | 34 | 9 | 21 | 1013 | 10 | SO 9.3 | |
| Oggi h: 16:15 | Sereno | 34 | 9 | 21 | 1013 | 10 | N 7.4 | |
| Oggi h: 15:45 | Sereno | 34 | 9 | 21 | 1013 | 10 | N 11.1 | |
| Oggi h: 15:15 | Sereno | 34 | 8 | 20 | 1014 | 10 | S 14.8 | |
| Oggi h: 14:45 | Sereno | 34 | 8 | 20 | 1014 | 10 | S 11.1 | |
| Oggi h: 14:15 | Sereno | 34 | 8 | 20 | 1014 | 10 | N 13 | |
| Oggi h: 13:45 | Sereno | 34 | 9 | 21 | 1014 | 10 | N 9.3 | |
| Oggi h: 13:15 | Sereno | 33 | 8 | 21 | 1015 | 10 | N 7.4 | |
| Oggi h: 12:45 | Sereno | 33 | 8 | 21 | 1015 | 10 | N 9.3 | |
| Oggi h: 12:15 | Sereno | 33 | 9 | 22 | 1015 | 10 | N 5.5 | |
| Oggi h: 11:45 | Sereno | 33 | 9 | 22 | 1016 | 10 | N 7.4 | |
| Oggi h: 11:15 | Sereno | 32 | 10 | 25 | 1016 | 10 | N 9.3 | |
| Oggi h: 10:45 | Sereno | 31 | 10 | 27 | 1016 | 10 | N 5.5 | |
| Oggi h: 10:15 | Sereno | 30 | 10 | 28 | 1016 | 10 | N 5.5 | |
| Oggi h: 09:45 | Sereno | 29 | 10 | 30 | 1016 | 10 | S 7.4 | |
| Oggi h: 09:15 | Sereno | 28 | 10 | 32 | 1016 | 10 | N 5.5 | |
| Oggi h: 08:45 | Sereno | 26 | 10 | 36 | 1016 | 10 | N 5.5 | |
| Oggi h: 08:15 | Sereno | 24 | 10 | 41 | 1016 | 10 | N 5.5 | |
| Oggi h: 07:45 | Sereno | 22 | 10 | 46 | 1016 | 10 | N 0 | |
| Oggi h: 07:15 | Sereno | 19 | 10 | 55 | 1016 | 10 | N 0 | |
| Oggi h: 06:45 | Sereno | 17 | 10 | 63 | 1016 | 10 | N 3.7 | |
| Oggi h: 06:15 | Sereno | 16 | 10 | 67 | 1016 | 10 | N 1.8 | |
| Oggi h: 05:45 | Sereno | 15 | 10 | 72 | 1016 | 10 | N 3.7 | |
| Oggi h: 05:15 | Sereno | 16 | 10 | 67 | 1016 | 10 | N 3.7 | |
| Oggi h: 04:45 | Sereno | 16 | 10 | 67 | 1016 | 10 | N 3.7 | |
| Oggi h: 04:15 | Sereno | 17 | 10 | 63 | 1016 | 10 | N 0 | |
| Oggi h: 03:45 | Sereno | 17 | 10 | 63 | 1016 | 10 | N 0 | |
| Oggi h: 03:15 | Sereno | 17 | 9 | 59 | 1016 | 10 | N 3.7 | |
| Oggi h: 02:45 | Sereno | 17 | 9 | 59 | 1016 | 10 | N 3.7 | |
| Oggi h: 02:15 | Sereno | 17 | 10 | 63 | 1016 | 10 | N 1.8 | |
| Oggi h: 01:45 | Sereno | 16 | 10 | 67 | 1016 | 10 | N 3.7 | |
| Oggi h: 01:15 | Sereno | 17 | 11 | 67 | 1016 | 10 | N 0 | |
| Oggi h: 00:45 | Sereno | 18 | 10 | 59 | 1016 | 10 | N 0 | |
| Oggi h: 00:15 | Sereno | 18 | 11 | 63 | 1016 | 10 | N 0 | |
| Ieri h: 23:45 | Sereno | 19 | 11 | 59 | 1016 | 10 | N 0 | |
| Ieri h: 23:15 | Sereno | 19 | 11 | 59 | 1016 | 10 | N 0 | |
| Ieri h: 22:45 | Sereno | 20 | 11 | 56 | 1016 | 10 | N 0 | |
| Ieri h: 22:15 | Sereno | 20 | 11 | 56 | 1016 | 10 | N 0 | |
| Ieri h: 21:45 | Sereno | 21 | 10 | 49 | 1016 | 10 | N 1.8 | |
| Ieri h: 21:15 | Sereno | 22 | 10 | 46 | 1016 | 10 | N 0 | |
| Ieri h: 20:45 | Sereno | 23 | 10 | 43 | 1016 | 10 | N 1.8 | |



